4XDNS LLHZ-LLHZ

Flight info

Callsign 4XDNS
Flight time 0h 8m
Altitude 800
Route CIRCUITS
Aircraft C172/L-VD/A

Departure

Time 2026-04-12 15:28
Airport Herzliya Airport (LLHZ)

Arrival

Time 2026-04-12 15:36
Airport Herzliya Airport (LLHZ)
Time Latitude Longitude Altitude Speed Heading
2026-04-12 15:15 32.18054 34.83194 100 ft 0 kts 20°
2026-04-12 15:18 32.18053 34.83194 101 ft 0 kts 19°
2026-04-12 15:23 32.18052 34.83194 99 ft 0 kts 17°
2026-04-12 15:24 32.18068 34.83213 100 ft 4 kts 89°
2026-04-12 15:24 32.18053 34.83262 101 ft 9 kts 100°
2026-04-12 15:25 32.18024 34.83356 104 ft 15 kts 110°
2026-04-12 15:25 32.17983 34.83492 107 ft 21 kts 108°
2026-04-12 15:25 32.17941 34.83637 112 ft 16 kts 108°
2026-04-12 15:25 32.17912 34.83737 116 ft 10 kts 110°
2026-04-12 15:26 32.17895 34.83793 120 ft 5 kts 108°
2026-04-12 15:26 32.17892 34.83804 120 ft 0 kts 100°
2026-04-12 15:27 32.17908 34.83832 120 ft 6 kts 359°
2026-04-12 15:27 32.17976 34.83647 112 ft 52 kts 290°
2026-04-12 15:27 32.18149 34.83151 217 ft 71 kts 292°
2026-04-12 15:28 32.18565 34.82917 398 ft 77 kts
2026-04-12 15:28 32.19095 34.83218 565 ft 85 kts 12°
2026-04-12 15:28 32.19593 34.83540 765 ft 78 kts 20°
2026-04-12 15:28 32.20112 34.83916 880 ft 94 kts 24°
2026-04-12 15:29 32.20686 34.84375 1008 ft 99 kts 23°
2026-04-12 15:29 32.21237 34.84667 1364 ft 87 kts 15°
2026-04-12 15:29 32.21849 34.85010 1365 ft 106 kts 19°
2026-04-12 15:29 32.22497 34.85395 1548 ft 103 kts 20°
2026-04-12 15:30 32.23061 34.85829 1965 ft 76 kts 10°
2026-04-12 15:30 32.23549 34.86175 2064 ft 74 kts 25°
2026-04-12 15:30 32.24264 34.85901 1062 ft 124 kts 344°
2026-04-12 15:30 32.24904 34.86444 1408 ft 104 kts 29°
2026-04-12 15:31 32.25426 34.86933 1752 ft 79 kts 33°
2026-04-12 15:31 32.25868 34.87236 1891 ft 78 kts
2026-04-12 15:31 32.26385 34.87472 2059 ft 76 kts 17°
2026-04-12 15:31 32.26233 34.87919 1377 ft 117 kts 184°
2026-04-12 15:32 32.25972 34.87321 1395 ft 74 kts 210°
2026-04-12 15:32 32.25410 34.87193 1265 ft 94 kts 187°
2026-04-12 15:32 32.24744 34.87363 1195 ft 104 kts 162°
2026-04-12 15:32 32.24147 34.87563 1188 ft 82 kts 175°
2026-04-12 15:33 32.23614 34.87657 1030 ft 81 kts 179°
2026-04-12 15:33 32.23049 34.87748 912 ft 81 kts 179°
2026-04-12 15:33 32.22508 34.87768 921 ft 74 kts 185°
2026-04-12 15:33 32.22013 34.87663 890 ft 71 kts 221°
2026-04-12 15:34 32.21733 34.87396 989 ft 80 kts 224°
2026-04-12 15:34 32.21435 34.87161 929 ft 95 kts 210°
2026-04-12 15:34 32.21022 34.86964 935 ft 98 kts 213°
2026-04-12 15:34 32.20202 34.86536 925 ft 88 kts 209°
2026-04-12 15:35 32.19630 34.86322 768 ft 86 kts 207°
2026-04-12 15:35 32.19075 34.86092 666 ft 83 kts 214°
2026-04-12 15:35 32.18625 34.85674 645 ft 88 kts 217°
2026-04-12 15:35 32.18077 34.85274 645 ft 99 kts 201°
2026-04-12 15:36 32.17667 34.84807 395 ft 94 kts 246°
2026-04-12 15:36 32.17794 34.84249 250 ft 65 kts 277°
2026-04-12 15:36 32.17922 34.83830 125 ft 42 kts 290°
2026-04-12 15:36 32.18035 34.83454 108 ft 66 kts 288°
2026-04-12 15:37 32.18196 34.82967 318 ft 61 kts 295°
2026-04-12 15:37 32.18611 34.82972 414 ft 77 kts 14°
2026-04-12 15:37 32.19114 34.83202 513 ft 82 kts 18°
2026-04-12 15:37 32.19218 34.83767 613 ft 83 kts 103°
2026-04-12 15:38 32.19005 34.84458 732 ft 95 kts 101°
2026-04-12 15:38 32.18686 34.85089 888 ft 94 kts 166°
2026-04-12 15:38 32.18027 34.85197 727 ft 104 kts 189°
2026-04-12 15:38 32.17657 34.84774 522 ft 76 kts 287°
2026-04-12 15:39 32.17819 34.84243 270 ft 59 kts 281°
2026-04-12 15:39 32.17920 34.83837 124 ft 41 kts 289°
2026-04-12 15:39 32.18029 34.83468 105 ft 63 kts 289°
2026-04-12 15:39 32.18185 34.82963 303 ft 57 kts 291°
2026-04-12 15:40 32.18471 34.82867 416 ft 65 kts 352°
2026-04-12 15:40 32.18925 34.83128 501 ft 83 kts 22°
2026-04-12 15:40 32.19208 34.83425 615 ft 85 kts 74°
2026-04-12 15:40 32.19023 34.84420 773 ft 97 kts 96°
2026-04-12 15:41 32.18917 34.85229 742 ft 114 kts 112°
2026-04-12 15:41 32.18292 34.85328 705 ft 114 kts 196°
2026-04-12 15:41 32.17652 34.84932 652 ft 102 kts 255°
2026-04-12 15:41 32.17814 34.84177 265 ft 89 kts 290°
2026-04-12 15:42 32.17982 34.83642 121 ft 54 kts 291°
2026-04-12 15:42 32.18101 34.83270 252 ft 49 kts 291°
2026-04-12 15:42 32.18269 34.82947 334 ft 57 kts 339°
2026-04-12 15:43 32.19146 34.83414 465 ft 99 kts 109°
2026-04-12 15:43 32.18749 34.84040 598 ft 96 kts 119°
2026-04-12 15:43 32.18608 34.84817 732 ft 98 kts 88°
2026-04-12 15:43 32.18264 34.85353 711 ft 77 kts 198°
2026-04-12 15:44 32.17765 34.85109 724 ft 66 kts 237°
2026-04-12 15:44 32.17698 34.84567 455 ft 73 kts 290°
2026-04-12 15:44 32.17871 34.83989 177 ft 64 kts 295°
2026-04-12 15:44 32.17996 34.83577 172 ft 51 kts 288°
2026-04-12 15:45 32.18099 34.83186 359 ft 45 kts 277°
2026-04-12 15:45 32.18171 34.82780 456 ft 52 kts 308°
2026-04-12 15:45 32.18652 34.82876 453 ft 87 kts 12°
2026-04-12 15:45 32.19170 34.83134 689 ft 75 kts 61°
2026-04-12 15:46 32.19076 34.83840 734 ft 96 kts 109°
2026-04-12 15:46 32.18393 34.84883 713 ft 75 kts 186°
2026-04-12 15:46 32.17921 34.84719 556 ft 65 kts 231°
2026-04-12 15:47 32.17807 34.84214 289 ft 67 kts 285°
2026-04-12 15:47 32.17967 34.83694 114 ft 62 kts 291°
2026-04-12 15:47 32.18103 34.83236 308 ft 56 kts 283°
2026-04-12 15:47 32.18258 34.82791 394 ft 66 kts 335°
2026-04-12 15:48 32.18778 34.83011 510 ft 83 kts 17°
2026-04-12 15:48 32.19187 34.83434 711 ft 86 kts 89°
2026-04-12 15:48 32.19063 34.84138 832 ft 97 kts 94°
2026-04-12 15:48 32.18880 34.84917 896 ft 99 kts 106°
2026-04-12 15:49 32.18383 34.85315 853 ft 101 kts 179°
2026-04-12 15:49 32.17719 34.85152 831 ft 97 kts 220°
2026-04-12 15:49 32.17711 34.84490 512 ft 99 kts 286°
2026-04-12 15:49 32.17928 34.83828 143 ft 75 kts 285°
2026-04-12 15:50 32.18069 34.83333 183 ft 64 kts 291°
2026-04-12 15:50 32.18282 34.82838 392 ft 63 kts 322°
2026-04-12 15:50 32.18757 34.83000 536 ft 80 kts
2026-04-12 15:50 32.19203 34.83376 688 ft 87 kts 86°
2026-04-12 15:51 32.19078 34.84170 780 ft 104 kts 97°
2026-04-12 15:51 32.18866 34.84971 912 ft 89 kts 115°
2026-04-12 15:51 32.18402 34.85209 991 ft 80 kts 179°
2026-04-12 15:51 32.17816 34.85174 892 ft 86 kts 224°
2026-04-12 15:52 32.17722 34.84511 377 ft 86 kts 283°
2026-04-12 15:52 32.17887 34.83952 138 ft 58 kts 278°
2026-04-12 15:52 32.17960 34.83672 113 ft 21 kts 297°
2026-04-12 15:52 32.17966 34.83592 108 ft 5 kts 195°
2026-04-12 15:53 32.17938 34.83595 109 ft 2 kts 191°